KTPA Airport Information

Runway Information
Runway 10 Length 6999 ft width 150 ft
Elevation 14 ft Threshold 0 ft Heading 92
Runway 28 Length 6999 ft Width 150 ft
Elevation 26 ft Threshold 0 ft Heading 272
Runway 19L Length 8300 ft width 150 ft
Elevation 26 ft Threshold 0 ft Heading 182
Runway 01R Length 8300 ft Width 150 ft
Elevation 18 ft Threshold 0 ft Heading 2
Runway 19R Length 11002 ft width 150 ft
Elevation 21 ft Threshold 0 ft Heading 182
Runway 01L Length 11002 ft Width 150 ft
Elevation 11 ft Threshold 0 ft Heading 2
Airport Frequencies
Type A/D Name APP/DEP Frequency 118.15 MHZ
Type ATIS Name ATIS Frequency 126.45 MHZ
Type CLD Name CLNC DEL Frequency 133.6 MHZ
Type GND Name GND Frequency 121.7 MHZ
Type TWR Name TWR Frequency 119.5 MHZ
Type UNIC Name UNICOM Frequency 122.95 MHZ
Airport Navaids
Type NDB Name Cosme Frequency 368 KHZ
Airport Weather Information & NOTAM
ADDS - METARS form results

(1402 UTC 24 January 2020)
Data provider http://aviationweather.gov/metar/data/
 
METAR text: KTPA 241353Z 15003KT 4SM BR SCT005 SCT150 BKN250 17/15 A3007 RMK AO2 SLP181 T01720150 $
Conditions at: KTPA (TAMPA , FL, US) observed 1353 UTC 24 January 2020
Temperature: 17.2°C (63°F)
Dewpoint: 15.0°C (59°F) [RH = 87%]
Pressure (altimeter): 30.07 inches Hg (1018.4 mb)
[Sea-level pressure: 1018.1 mb]
Winds: from the SSE (150 degrees) at 3 MPH (3 knots; 1.5 m/s)
Visibility: 4 miles ( 6 km)
Ceiling: 25000 feet AGL
Clouds: scattered clouds at 500 feet AGL
scattered clouds at 15000 feet AGL
broken clouds at 25000 feet AGL
Weather: BR  (mist)
SOME DATA ABOVE MAY BE INACCURATE!!!
"$" is an indication the sensor requires maintenance

METAR text: KTPA 241348Z 16004KT 4SM BR SCT005 SCT150 BKN250 17/15 A3006 RMK AO2 $
Conditions at: KTPA (TAMPA , FL, US) observed 1348 UTC 24 January 2020
Temperature: 17.0°C (63°F)
Dewpoint: 15.0°C (59°F) [RH = 88%]
Pressure (altimeter): 30.06 inches Hg (1018.0 mb)
Winds: from the SSE (160 degrees) at 5 MPH (4 knots; 2.1 m/s)
Visibility: 4 miles ( 6 km)
Ceiling: 25000 feet AGL
Clouds: scattered clouds at 500 feet AGL
scattered clouds at 15000 feet AGL
broken clouds at 25000 feet AGL
Weather: BR  (mist)
SOME DATA ABOVE MAY BE INACCURATE!!!
"$" is an indication the sensor requires maintenance

METAR text: KTPA 241329Z 14005KT 2SM BR OVC004 17/16 A3005 RMK AO2 SFC VIS 2 1/2 T01720156 $
Conditions at: KTPA (TAMPA , FL, US) observed 1329 UTC 24 January 2020
Temperature: 17.2°C (63°F)
Dewpoint: 15.6°C (60°F) [RH = 90%]
Pressure (altimeter): 30.05 inches Hg (1017.7 mb)
Winds: from the SE (140 degrees) at 6 MPH (5 knots; 2.6 m/s)
Visibility: 2.00 miles (3.22 km)
Ceiling: 400 feet AGL
Clouds: overcast cloud deck at 400 feet AGL
Weather: BR  (mist)
SOME DATA ABOVE MAY BE INACCURATE!!!
"$" is an indication the sensor requires maintenance

METAR text: KTPA 241316Z COR VRB04KT 2SM R01L/P6000FT BR OVC004 17/15 A3005 RMK AO2 SFC VIS 2 1/2 T01670150 $
Conditions at: KTPA (TAMPA , FL, US) observed 1316 UTC 24 January 2020
Temperature: 16.7°C (62°F)
Dewpoint: 15.0°C (59°F) [RH = 90%]
Pressure (altimeter): 30.05 inches Hg (1017.7 mb)
Winds: variable direction winds at 5 MPH (4 knots; 2.1 m/s)
Visibility: 2.00 miles (3.22 km)
Ceiling: 400 feet AGL
Clouds: overcast cloud deck at 400 feet AGL
Weather: BR  (mist)
SOME DATA ABOVE MAY BE INACCURATE!!!
"$" is an indication the sensor requires maintenance

Forecast for: KTPA (TAMPA , FL, US)
Text: KTPA 241401Z 2414/2518 17008KT P6SM FEW010 SCT030 BKN200
Forecast period: 1400 to 1900 UTC 24 January 2020
Forecast type: FROM: standard forecast or significant change
Winds: from the S (170 degrees) at 9 MPH (8 knots; 4.1 m/s)
Visibility: 6 or more miles 10+ km)
Ceiling: 20000 feet AGL
Clouds: few clouds at 1000 feet AGL
scattered clouds at 3000 feet AGL
broken clouds at 20000 feet AGL
Weather: no significant weather forecast for this period
Text: TEMPO 2414/2415 4SM BR
Forecast period: 1400 to 1500 UTC 24 January 2020
Forecast type: TEMPORARY: The following changes expected for less than half the time period
Visibility: 4 miles (6 km)
Ceiling: unknown
Clouds: missing
Weather: BR  (mist)
Text: FM241900 23009KT P6SM SCT035 BKN120
Forecast period: 1900 UTC 24 January 2020 to 0800 UTC 25 January 2020
Forecast type: FROM: standard forecast or significant change
Winds: from the SW (230 degrees) at 10 MPH (9 knots; 4.6 m/s)
Visibility: 6 or more miles 10+ km)
Ceiling: 12000 feet AGL
Clouds: scattered clouds at 3500 feet AGL
broken clouds at 12000 feet AGL
Weather: no significant weather forecast for this period
Text: FM250800 31009KT P6SM FEW040
Forecast period: 0800 to 1400 UTC 25 January 2020
Forecast type: FROM: standard forecast or significant change
Winds: from the NW (310 degrees) at 10 MPH (9 knots; 4.6 m/s)
Visibility: 6 or more miles 10+ km)
Ceiling: at least 12,000 feet AGL
Clouds: few clouds at 4000 feet AGL
Weather: no significant weather forecast for this period
Text: FM251400 34008KT P6SM SKC
Forecast period: 1400 to 1800 UTC 25 January 2020
Forecast type: FROM: standard forecast or significant change
Winds: from the NNW (340 degrees) at 9 MPH (8 knots; 4.1 m/s)
Visibility: 6 or more miles 10+ km)
Clouds: clear skies
Weather: no significant weather forecast for this period